Time;durP1;ratioP1;P1;durP2;ratioP2;P2;SDS_P1;SDS_P2;PMS_P1;PMS_P2;Temp;Humidity;BMP_temperature;BMP_pressure;BME280_temperature;BME280_humidity;BME280_pressure;Samples;Min_cycle;Max_cycle;Signal;HPM_P1;HPM_P2
2023/06/12 07:59:39;;;;;;;;;;;;;;;7.03;100.00;99464.56;6121544;23;19931;-82
2023/06/12 08:02:06;;;;;;;;;;;;;;;7.08;100.00;99471.41;6126897;23;19917;-83
2023/06/12 08:04:33;;;;;;;;;;;;;;;7.05;100.00;99465.34;6126292;23;19924;-82
2023/06/12 08:07:00;;;;;;;;;;;;;;;7.05;100.00;99468.88;6100857;23;19941;-81
2023/06/12 08:09:25;;;;;;;;;;;;;;;7.06;100.00;99481.13;6126971;23;20304;-82
2023/06/12 08:11:51;;;;;;;;;;;;;;;7.06;100.00;99469.72;6100546;23;19944;-81
2023/06/12 08:14:17;;;;;;;;;;;;;;;7.07;100.00;99472.31;6098828;23;19913;-85
2023/06/12 08:16:45;;;;;;;;;;;;;;;7.08;100.00;99471.41;6100152;23;20003;-82
2023/06/12 08:19:10;;;;;;;;;;;;;;;7.14;100.00;99470.31;6100473;23;19963;-83
2023/06/12 08:21:36;;;;;;;;;;;;;;;7.07;100.00;99467.03;6100043;23;19991;-83
2023/06/12 08:24:02;;;;;;;;;;;;;;;7.13;100.00;99462.47;6100327;23;20360;-84
2023/06/12 08:26:28;;;;;;;;;;;;;;;7.13;100.00;99460.69;6126506;23;20309;-91
2023/06/12 08:28:53;;;;;;;;;;;;;;;7.21;100.00;99457.78;6124633;23;19967;-82
2023/06/12 08:31:18;;;;;;;;;;;;;;;7.17;100.00;99461.47;6127609;23;19913;-81
2023/06/12 08:33:43;;;;;;;;;;;;;;;7.13;100.00;99452.78;6125906;23;19912;-81
2023/06/12 08:36:09;;;;;;;;;;;;;;;7.10;100.00;99458.19;6126150;23;19917;-81
2023/06/12 08:38:34;;;;;;;;;;;;;;;7.24;100.00;99455.06;6125045;23;19924;-82
2023/06/12 08:41:01;;;;;;;;;;;;;;;7.16;100.00;99457.09;6099713;23;20344;-85
2023/06/12 08:43:28;;;;;;;;;;;;;;;7.25;100.00;99448.88;6098447;23;19913;-82
2023/06/12 08:45:55;;;;;;;;;;;;;;;7.25;100.00;99455.00;6126118;23;19948;-81
2023/06/12 08:48:23;;;;;;;;;;;;;;;7.19;100.00;99447.31;6099995;23;19920;-81
2023/06/12 08:50:50;;;;;;;;;;;;;;;7.20;100.00;99442.91;6125922;23;19967;-82
2023/06/12 08:53:16;;;;;;;;;;;;;;;7.23;100.00;99445.44;6100013;23;19920;-81
2023/06/12 08:55:44;;;;;;;;;;;;;;;7.21;100.00;99447.25;6119400;23;19920;-81
2023/06/12 08:58:10;;;;;;;;;;;;;;;7.18;100.00;99444.72;6098499;23;20289;-81
2023/06/12 09:00:36;;;;;;;;;;;;;;;7.22;100.00;99455.09;6125404;23;19921;-83
2023/06/12 09:03:04;;;;;;;;;;;;;;;7.23;100.00;99434.91;6095929;23;19951;-83
2023/06/12 09:05:33;;;;;;;;;;;;;;;7.24;100.00;99432.22;6099829;23;19909;-82
2023/06/12 09:08:00;;;;;;;;;;;;;;;7.28;100.00;99438.25;6125872;23;19917;-82
2023/06/12 09:10:25;;;;;;;;;;;;;;;7.25;100.00;99433.06;6125847;23;19956;-82
2023/06/12 09:12:54;;;;;;;;;;;;;;;7.25;100.00;99427.81;6098348;23;19913;-82
2023/06/12 09:15:20;;;;;;;;;;;;;;;7.24;100.00;99436.59;6099596;23;19913;-81
2023/06/12 09:17:49;;;;;;;;;;;;;;;7.26;100.00;99440.91;6125519;23;19996;-84
2023/06/12 09:20:15;;;;;;;;;;;;;;;7.24;100.00;99437.50;6099689;23;19987;-81
2023/06/12 09:22:41;;;;;;;;;;;;;;;7.34;100.00;99448.56;6099719;23;19924;-82
2023/06/12 09:25:07;;;;;;;;;;;;;;;7.33;100.00;99448.63;6099643;23;19917;-81
2023/06/12 09:27:40;;;;;;;;;;;;;;;7.27;100.00;99454.94;6124030;23;19947;-82
2023/06/12 09:30:06;;;;;;;;;;;;;;;7.22;100.00;99448.97;6125588;23;19924;-83
2023/06/12 09:32:32;;;;;;;;;;;;;;;7.24;100.00;99450.66;6125645;23;19913;-82
2023/06/12 09:34:57;;;;;;;;;;;;;;;7.20;100.00;99432.38;6099646;23;19984;-81
2023/06/12 09:37:23;;;;;;;;;;;;;;;7.24;100.00;99442.75;6099673;23;19920;-81
2023/06/12 09:39:49;;;;;;;;;;;;;;;7.27;100.00;99442.66;6099559;23;20329;-82
2023/06/12 09:42:17;;;;;;;;;;;;;;;7.41;100.00;99446.56;6124105;23;19917;-81
2023/06/12 09:44:42;;;;;;;;;;;;;;;7.31;100.00;99445.16;6125538;23;20322;-82
2023/06/12 09:47:08;;;;;;;;;;;;;;;7.34;100.00;99445.94;6125301;23;19924;-82
2023/06/12 09:49:34;;;;;;;;;;;;;;;7.33;100.00;99435.44;6099685;23;19920;-82
2023/06/12 09:52:00;;;;;;;;;;;;;;;7.26;100.00;99440.91;6099545;23;19923;-82
2023/06/12 09:54:27;;;;;;;;;;;;;;;7.34;100.00;99445.94;6125527;23;20003;-82
2023/06/12 09:56:53;;;;;;;;;;;;;;;7.31;100.00;99447.78;6099390;23;19920;-82
2023/06/12 09:59:21;;;;;;;;;;;;;;;7.34;100.00;99448.56;6123837;23;19928;-82
2023/06/12 10:01:47;;;;;;;;;;;;;;;7.33;100.00;99445.97;6099464;23;19920;-82
2023/06/12 10:04:14;;;;;;;;;;;;;;;7.38;100.00;99460.72;6125596;23;19916;-82
2023/06/12 10:06:40;;;;;;;;;;;;;;;7.35;100.00;99438.88;6125303;23;19917;-82
2023/06/12 10:09:06;;;;;;;;;;;;;;;7.33;100.00;99431.03;6118541;23;20293;-81
2023/06/12 10:11:33;;;;;;;;;;;;;;;7.33;100.00;99433.66;6099355;23;20262;-82
2023/06/12 10:13:58;;;;;;;;;;;;;;;7.37;100.00;99431.75;6123598;23;19995;-83
2023/06/12 10:16:25;;;;;;;;;;;;;;;7.31;100.00;99438.13;6099649;23;20280;-82
2023/06/12 10:18:50;;;;;;;;;;;;;;;7.33;100.00;99431.03;6093381;23;19963;-82
2023/06/12 10:21:18;;;;;;;;;;;;;;;7.29;100.00;99434.66;6125215;23;19913;-82
2023/06/12 10:23:43;;;;;;;;;;;;;;;7.30;100.00;99425.84;6099284;23;20216;-82
2023/06/12 10:26:09;;;;;;;;;;;;;;;7.30;100.00;99423.22;6099233;23;20248;-82
2023/06/12 10:28:35;;;;;;;;;;;;;;;7.30;100.00;99425.84;6097845;23;19924;-82
2023/06/12 10:31:16;;;;;;;;;;;;;;;7.29;100.00;99413.59;6125209;23;20384;-82
2023/06/12 10:34:00;;;;;;;;;;;;;;;7.31;100.00;99413.53;6099336;23;19923;-81
2023/06/12 10:36:35;;;;;;;;;;;;;;;7.26;100.00;99409.31;6099185;23;20322;-82
2023/06/12 10:39:04;;;;;;;;;;;;;;;7.45;100.00;99414.78;6099424;23;19913;-81
2023/06/12 10:41:30;;;;;;;;;;;;;;;7.45;100.00;99408.63;6099544;23;19955;-82
2023/06/12 10:43:55;;;;;;;;;;;;;;;7.36;100.00;99404.56;6097745;23;20007;-82
2023/06/12 10:46:21;;;;;;;;;;;;;;;7.34;100.00;99398.50;6125260;23;19951;-81
2023/06/12 10:48:47;;;;;;;;;;;;;;;7.37;100.00;99395.75;6099248;23;19920;-82
2023/06/12 10:51:12;;;;;;;;;;;;;;;7.32;100.00;99396.81;6099566;23;20391;-81
2023/06/12 10:53:42;;;;;;;;;;;;;;;7.42;100.00;99404.34;6125204;23;19968;-82
2023/06/12 10:56:08;;;;;;;;;;;;;;;7.34;100.00;99398.50;6099250;23;19913;-81
2023/06/12 10:58:37;;;;;;;;;;;;;;;7.28;100.00;99393.44;6124271;23;19917;-82
2023/06/12 11:01:06;;;;;;;;;;;;;;;7.31;100.00;99390.69;6101529;23;19913;-82
2023/06/12 11:03:33;;;;;;;;;;;;;;;7.30;100.00;99396.88;6127205;23;20277;-81
2023/06/12 11:06:08;;;;;;;;;;;;;;;7.40;100.00;99393.00;6126887;23;19955;-83
2023/06/12 11:08:34;;;;;;;;;;;;;;;7.32;100.00;99396.81;6127418;23;19917;-83
2023/06/12 11:11:04;;;;;;;;;;;;;;;7.33;100.00;99391.50;6127273;23;19940;-83
2023/06/12 11:13:30;;;;;;;;;;;;;;;7.36;100.00;99399.28;6125397;23;19960;-83
2023/06/12 11:15:55;;;;;;;;;;;;;;;7.42;100.00;99385.88;6100937;23;19917;-82
2023/06/12 11:18:20;;;;;;;;;;;;;;;7.39;100.00;99383.38;6126733;23;19917;-82
2023/06/12 11:20:53;;;;;;;;;;;;;;;7.32;100.00;99389.75;6127083;23;19992;-82
2023/06/12 11:23:21;;;;;;;;;;;;;;;7.31;100.00;99385.41;6127200;23;19917;-82
2023/06/12 11:25:46;;;;;;;;;;;;;;;7.45;100.00;99375.22;6100682;23;19920;-83
2023/06/12 11:28:12;;;;;;;;;;;;;;;7.44;100.00;99370.88;6099287;23;19913;-82
2023/06/12 11:30:39;;;;;;;;;;;;;;;7.49;100.00;99378.59;6126728;23;20241;-82
2023/06/12 11:33:08;;;;;;;;;;;;;;;7.49;100.00;99380.41;6126650;23;19913;-82
2023/06/12 11:35:38;;;;;;;;;;;;;;;7.53;100.00;99376.72;6126815;23;19995;-82
2023/06/12 11:38:05;;;;;;;;;;;;;;;7.42;100.00;99377.97;6126730;23;20004;-83
2023/06/12 11:40:30;;;;;;;;;;;;;;;7.33;100.00;99372.19;6100661;23;20326;-83
2023/06/12 11:42:56;;;;;;;;;;;;;;;7.40;100.00;99369.28;6125092;23;19948;-82
2023/06/12 11:45:21;;;;;;;;;;;;;;;7.42;100.00;99361.31;6126594;23;19913;-83
2023/06/12 11:47:59;;;;;;;;;;;;;;;7.43;100.00;99363.88;6126337;23;19913;-82
2023/06/12 11:50:36;;;;;;;;;;;;;;;7.36;100.00;99372.06;6126602;23;19917;-83
2023/06/12 11:53:05;;;;;;;;;;;;;;;7.36;100.00;99366.81;6126476;23;19968;-83
2023/06/12 11:55:39;;;;;;;;;;;;;;;7.27;100.00;99367.97;6126399;23;19940;-83
2023/06/12 11:58:04;;;;;;;;;;;;;;;7.24;100.00;99363.69;6125000;23;19948;-84
2023/06/12 12:00:33;;;;;;;;;;;;;;;7.30;100.00;99359.13;6126111;23;20253;-83
2023/06/12 12:03:01;;;;;;;;;;;;;;;7.33;100.00;99361.66;6126300;23;19921;-84
2023/06/12 12:05:26;;;;;;;;;;;;;;;7.43;100.00;99357.75;6126365;23;19913;-84
2023/06/12 12:07:59;;;;;;;;;;;;;;;7.33;100.00;99353.75;6126220;23;19913;-84
2023/06/12 12:10:28;;;;;;;;;;;;;;;7.42;100.00;99351.63;6125972;23;19917;-83
2023/06/12 12:12:59;;;;;;;;;;;;;;;7.37;100.00;99348.31;6124689;23;19985;-82
2023/06/12 12:15:25;;;;;;;;;;;;;;;7.45;100.00;99356.78;6126314;23;19917;-84
2023/06/12 12:17:51;;;;;;;;;;;;;;;7.31;100.00;99356.44;6126602;23;19967;-84
2023/06/12 12:20:21;;;;;;;;;;;;;;;7.26;100.00;99361.00;6126368;23;19916;-83
2023/06/12 12:23:12;;;;;;;;;;;;;;;7.32;100.00;99360.75;6100179;23;19913;-87
2023/06/12 12:25:43;;;;;;;;;;;;;;;7.39;100.00;99356.16;6099593;23;19913;-84
2023/06/12 12:28:14;;;;;;;;;;;;;;;7.30;100.00;99362.59;6095102;23;20004;-84
2023/06/12 12:30:46;;;;;;;;;;;;;;;7.30;100.00;99354.69;6126009;23;20094;-84
2023/06/12 12:33:11;;;;;;;;;;;;;;;7.35;100.00;99350.13;6126249;23;19992;-83
2023/06/12 12:35:36;;;;;;;;;;;;;;;7.28;100.00;99341.56;6125914;23;19983;-83
2023/06/12 12:38:03;;;;;;;;;;;;;;;7.60;100.00;99343.94;6126398;23;19960;-83
2023/06/12 12:40:28;;;;;;;;;;;;;;;7.62;100.00;99336.81;6100228;23;19909;-83
2023/06/12 12:42:54;;;;;;;;;;;;;;;7.67;100.00;99339.28;6124918;23;19992;-83
2023/06/12 12:45:19;;;;;;;;;;;;;;;7.68;100.00;99331.31;6100293;23;19909;-83
2023/06/12 12:47:47;;;;;;;;;;;;;;;7.65;100.00;99342.00;6093478;23;20318;-83
2023/06/12 12:50:13;;;;;;;;;;;;;;;7.58;100.00;99337.88;6099865;23;19944;-83
2023/06/12 12:52:38;;;;;;;;;;;;;;;7.46;100.00;99337.38;6126054;23;20277;-83
2023/06/12 12:55:05;;;;;;;;;;;;;;;7.55;100.00;99338.84;6099805;23;19917;-83
2023/06/12 12:57:34;;;;;;;;;;;;;;;7.50;100.00;99338.16;6098593;23;19928;-83
2023/06/12 13:00:00;;;;;;;;;;;;;;;7.52;100.00;99335.47;6099652;23;19917;-84
2023/06/12 13:02:26;;;;;;;;;;;;;;;7.40;100.00;99327.09;6126012;23;19987;-83
2023/06/12 13:04:51;;;;;;;;;;;;;;;7.43;100.00;99329.59;6125726;23;19948;-84
2023/06/12 13:07:17;;;;;;;;;;;;;;;7.46;100.00;99326.84;6126155;23;19916;-84
2023/06/12 13:09:43;;;;;;;;;;;;;;;7.52;100.00;99328.41;6125912;23;19913;-84
2023/06/12 13:12:09;;;;;;;;;;;;;;;7.43;100.00;99328.75;6125335;23;19956;-84
2023/06/12 13:14:34;;;;;;;;;;;;;;;7.37;100.00;99319.31;6098825;23;19924;-83
2023/06/12 13:16:59;;;;;;;;;;;;;;;7.34;100.00;99308.88;6125658;23;19967;-83
2023/06/12 13:19:25;;;;;;;;;;;;;;;7.39;100.00;99309.56;6125671;23;19916;-83
2023/06/12 13:21:50;;;;;;;;;;;;;;;7.42;100.00;99312.09;6099520;23;19948;-86
2023/06/12 13:24:15;;;;;;;;;;;;;;;7.40;100.00;99313.94;6099621;23;19913;-83
2023/06/12 13:26:40;;;;;;;;;;;;;;;7.40;100.00;99308.66;6099778;23;19928;-82
2023/06/12 13:29:06;;;;;;;;;;;;;;;7.46;100.00;99305.75;6098052;23;19913;-83
2023/06/12 13:31:31;;;;;;;;;;;;;;;7.41;100.00;99301.59;6099673;23;19920;-83
2023/06/12 13:33:56;;;;;;;;;;;;;;;7.41;100.00;99307.72;6099861;23;20000;-83
2023/06/12 13:36:23;;;;;;;;;;;;;;;7.39;100.00;99311.34;6099619;23;19919;-83
2023/06/12 13:38:48;;;;;;;;;;;;;;;7.53;100.00;99300.25;6119324;23;19917;-83
2023/06/12 13:41:14;;;;;;;;;;;;;;;7.43;100.00;99292.69;6100086;23;19947;-82
2023/06/12 13:43:40;;;;;;;;;;;;;;;7.42;100.00;99313.88;6098452;23;19937;-83
2023/06/12 13:46:06;;;;;;;;;;;;;;;7.39;100.00;99316.63;6099683;23;19921;-82
2023/06/12 13:48:31;;;;;;;;;;;;;;;7.54;100.00;99317.81;6125356;23;20273;-83
2023/06/12 13:50:58;;;;;;;;;;;;;;;7.48;100.00;99318.03;6099613;23;19952;-83
2023/06/12 13:53:24;;;;;;;;;;;;;;;7.42;100.00;99309.44;6099581;23;19963;-83
2023/06/12 13:55:50;;;;;;;;;;;;;;;7.60;100.00;99309.66;6125410;23;19916;-83
2023/06/12 13:58:15;;;;;;;;;;;;;;;7.48;100.00;99308.34;6098363;23;20539;-83
2023/06/12 14:00:41;;;;;;;;;;;;;;;7.52;100.00;99303.84;6099113;23;19948;-83
2023/06/12 14:03:07;;;;;;;;;;;;;;;7.56;100.00;99308.06;6099456;23;19917;-82
2023/06/12 14:05:32;;;;;;;;;;;;;;;7.48;100.00;99304.84;6125417;23;20368;-82
2023/06/12 14:07:57;;;;;;;;;;;;;;;7.49;100.00;99299.53;6125716;23;19917;-82
2023/06/12 14:10:23;;;;;;;;;;;;;;;7.51;100.00;99307.38;6099421;23;19964;-82
2023/06/12 14:12:49;;;;;;;;;;;;;;;7.43;100.00;99299.75;6123951;23;20021;-82
2023/06/12 14:15:14;;;;;;;;;;;;;;;7.42;100.00;99296.25;6125313;23;20260;-83
2023/06/12 14:17:40;;;;;;;;;;;;;;;7.35;100.00;99286.84;6123634;23;19925;-82
2023/06/12 14:20:05;;;;;;;;;;;;;;;7.42;100.00;99284.88;6123676;23;19992;-82
2023/06/12 14:22:31;;;;;;;;;;;;;;;7.46;100.00;99283.81;6124395;23;19913;-82
2023/06/12 14:24:56;;;;;;;;;;;;;;;7.49;100.00;99282.84;6123298;23;19913;-83
2023/06/12 14:27:22;;;;;;;;;;;;;;;7.41;100.00;99278.72;6096619;23;20298;-83
2023/06/12 14:29:47;;;;;;;;;;;;;;;7.41;100.00;99270.81;6098139;23;20249;-83
2023/06/12 14:32:12;;;;;;;;;;;;;;;7.54;100.00;99271.19;6100005;23;19908;-83
2023/06/12 14:34:38;;;;;;;;;;;;;;;7.60;100.00;99275.38;6099879;23;20325;-82
2023/06/12 14:37:03;;;;;;;;;;;;;;;7.59;100.00;99274.50;6101233;23;20310;-83
2023/06/12 14:39:28;;;;;;;;;;;;;;;7.51;100.00;99265.19;6098901;23;19917;-83
2023/06/12 14:41:54;;;;;;;;;;;;;;;7.47;100.00;99264.47;6099639;23;19956;-83
2023/06/12 14:44:19;;;;;;;;;;;;;;;7.45;100.00;99261.00;6124323;23;19964;-83
2023/06/12 14:46:44;;;;;;;;;;;;;;;7.45;100.00;99256.59;6100751;23;20317;-83
2023/06/12 14:49:10;;;;;;;;;;;;;;;7.48;100.00;99260.03;6099780;23;19913;-83
2023/06/12 14:51:35;;;;;;;;;;;;;;;7.55;100.00;99253.63;6093823;23;19913;-82
2023/06/12 14:54:00;;;;;;;;;;;;;;;7.62;100.00;99261.22;6101254;23;19959;-83
2023/06/12 14:56:25;;;;;;;;;;;;;;;7.51;100.00;99247.59;6100881;23;20234;-82
2023/06/12 14:58:51;;;;;;;;;;;;;;;7.60;100.00;99255.16;6124690;23;20329;-82
2023/06/12 15:01:16;;;;;;;;;;;;;;;7.62;100.00;99249.81;6126491;23;20249;-84
2023/06/12 15:03:41;;;;;;;;;;;;;;;7.60;100.00;99260.41;6126478;23;19996;-84
2023/06/12 15:06:06;;;;;;;;;;;;;;;7.48;100.00;99241.59;6099892;23;19913;-82
2023/06/12 15:08:32;;;;;;;;;;;;;;;7.41;100.00;99236.53;6100889;23;19924;-83
2023/06/12 15:10:57;;;;;;;;;;;;;;;7.48;100.00;99233.69;6100651;23;19919;-83
2023/06/12 15:13:22;;;;;;;;;;;;;;;7.61;100.00;99242.81;6092736;23;20253;-83
2023/06/12 15:15:47;;;;;;;;;;;;;;;7.80;100.00;99235.91;6099211;23;19913;-83
2023/06/12 15:18:12;;;;;;;;;;;;;;;7.84;100.00;99241.06;6126301;23;19973;-82
2023/06/12 15:20:38;;;;;;;;;;;;;;;7.68;100.00;99240.81;6098870;23;19964;-83
2023/06/12 15:23:03;;;;;;;;;;;;;;;7.61;100.00;99245.44;6099702;23;19921;-83
2023/06/12 15:25:28;;;;;;;;;;;;;;;7.59;100.00;99242.88;6126316;23;19913;-82
2023/06/12 15:27:54;;;;;;;;;;;;;;;7.54;100.00;99238.72;6116710;23;19916;-83
2023/06/12 15:30:19;;;;;;;;;;;;;;;7.55;100.00;99232.53;6099798;23;19920;-83
2023/06/12 15:32:47;;;;;;;;;;;;;;;7.50;100.00;99229.19;6125578;23;20333;-83
2023/06/12 15:35:13;;;;;;;;;;;;;;;7.51;100.00;99230.91;6099391;23;20571;-84
2023/06/12 15:37:38;;;;;;;;;;;;;;;7.59;100.00;99220.94;6100162;23;19947;-82
2023/06/12 15:40:08;;;;;;;;;;;;;;;7.68;100.00;99219.72;6099752;23;19966;-84
2023/06/12 15:42:33;;;;;;;;;;;;;;;7.64;100.00;99225.13;6097749;23;19919;-82
2023/06/12 15:44:58;;;;;;;;;;;;;;;7.49;100.00;99225.72;6124609;23;19964;-84
2023/06/12 15:47:24;;;;;;;;;;;;;;;7.48;100.00;99231.03;6098980;23;19939;-83
2023/06/12 15:49:49;;;;;;;;;;;;;;;7.57;100.00;99223.63;6097883;23;19919;-83
2023/06/12 15:52:14;;;;;;;;;;;;;;;7.46;100.00;99221.41;6098831;23;19963;-83
2023/06/12 15:54:39;;;;;;;;;;;;;;;7.49;100.00;99217.81;6124960;23;19947;-86
2023/06/12 15:57:06;;;;;;;;;;;;;;;7.45;100.00;99214.44;6091980;23;19964;-83
2023/06/12 15:59:31;;;;;;;;;;;;;;;7.46;100.00;99210.84;6123047;23;19928;-83
2023/06/12 16:01:58;;;;;;;;;;;;;;;7.38;100.00;99207.66;6125389;23;19987;-84
2023/06/12 16:04:24;;;;;;;;;;;;;;;7.53;100.00;99210.63;6098864;23;19913;-83
2023/06/12 16:06:49;;;;;;;;;;;;;;;7.48;100.00;99216.06;6123621;23;19917;-84
2023/06/12 16:09:14;;;;;;;;;;;;;;;7.39;100.00;99206.75;6099910;23;19917;-89
2023/06/12 16:11:40;;;;;;;;;;;;;;;7.39;100.00;99211.19;6100139;23;19917;-85
2023/06/12 16:14:05;;;;;;;;;;;;;;;7.53;100.00;99205.34;6123924;23;19917;-83
2023/06/12 16:16:30;;;;;;;;;;;;;;;7.57;100.00;99212.22;6099520;23;19913;-84
2023/06/12 16:18:56;;;;;;;;;;;;;;;7.54;100.00;99214.97;6125622;23;19971;-86
2023/06/12 16:21:21;;;;;;;;;;;;;;;7.53;100.00;99215.88;6099041;23;20258;-83
2023/06/12 16:23:46;;;;;;;;;;;;;;;7.54;100.00;99220.25;6098670;23;19917;-84
2023/06/12 16:26:11;;;;;;;;;;;;;;;7.54;100.00;99215.84;6098962;23;19913;-83
2023/06/12 16:28:37;;;;;;;;;;;;;;;7.48;100.00;99220.50;6096052;23;19913;-83
2023/06/12 16:31:02;;;;;;;;;;;;;;;7.53;100.00;99222.03;6091515;23;19992;-84
2023/06/12 16:33:27;;;;;;;;;;;;;;;9.36;100.00;99223.06;6098994;23;19951;-83
2023/06/12 16:35:53;;;;;;;;;;;;;;;7.83;100.00;99211.16;6099486;23;20369;-83
2023/06/12 16:38:19;;;;;;;;;;;;;;;7.63;100.00;99206.72;6099156;23;20372;-82
2023/06/12 16:40:44;;;;;;;;;;;;;;;7.57;100.00;99206.97;6098290;23;20003;-84
2023/06/12 16:43:10;;;;;;;;;;;;;;;7.53;100.00;99206.22;6097148;23;20353;-82
2023/06/12 16:45:37;;;;;;;;;;;;;;;7.57;100.00;99205.16;6124589;23;20332;-82
2023/06/12 16:48:03;;;;;;;;;;;;;;;7.49;100.00;99201.97;6124880;23;20269;-83
2023/06/12 16:50:28;;;;;;;;;;;;;;;7.46;100.00;99197.69;6098877;23;19968;-82
2023/06/12 16:52:53;;;;;;;;;;;;;;;7.48;100.00;99196.78;6117692;23;19949;-83
2023/06/12 16:55:18;;;;;;;;;;;;;;;7.52;100.00;99198.38;6098418;23;19917;-83
2023/06/12 16:57:44;;;;;;;;;;;;;;;7.51;100.00;99192.22;6123529;23;19917;-83
2023/06/12 17:00:10;;;;;;;;;;;;;;;7.43;100.00;99191.69;6098863;23;20043;-83
2023/06/12 17:02:35;;;;;;;;;;;;;;;7.40;100.00;99191.78;6097947;23;19913;-88
2023/06/12 17:05:01;;;;;;;;;;;;;;;7.43;100.00;99197.78;6098126;23;19913;-84
2023/06/12 17:07:26;;;;;;;;;;;;;;;7.49;100.00;99204.63;6097920;23;20326;-83
2023/06/12 17:09:51;;;;;;;;;;;;;;;7.51;100.00;99207.19;6124302;23;19924;-82
2023/06/12 17:12:20;;;;;;;;;;;;;;;7.43;100.00;99203.06;6097966;23;19909;-82
2023/06/12 17:14:45;;;;;;;;;;;;;;;7.45;100.00;99203.88;6124120;23;20040;-85
2023/06/12 17:17:11;;;;;;;;;;;;;;;7.40;100.00;99208.50;6098687;23;19948;-84
2023/06/12 17:19:37;;;;;;;;;;;;;;;7.43;100.00;99208.34;6098568;23;19913;-84
2023/06/12 17:22:02;;;;;;;;;;;;;;;7.47;100.00;99203.81;6124412;23;19917;-83
2023/06/12 17:24:27;;;;;;;;;;;;;;;7.46;100.00;99202.94;6123997;23;19996;-83
2023/06/12 17:29:38;;;;;;;;;;;;;;;7.48;100.00;99204.69;6097601;23;19992;-83
2023/06/12 17:32:04;;;;;;;;;;;;;;;7.53;100.00;99197.44;6098661;23;19947;-82
2023/06/12 17:34:29;;;;;;;;;;;;;;;7.53;100.00;99197.44;6123806;23;19915;-83
2023/06/12 17:36:54;;;;;;;;;;;;;;;7.46;100.00;99194.19;6098024;23;19921;-82
2023/06/12 17:39:20;;;;;;;;;;;;;;;7.50;100.00;99195.81;6122712;23;20249;-84
2023/06/12 17:41:45;;;;;;;;;;;;;;;7.40;100.00;99199.69;6122323;23;19983;-82
2023/06/12 17:44:11;;;;;;;;;;;;;;;7.53;100.00;99205.34;6122037;23;19996;-83
2023/06/12 17:46:37;;;;;;;;;;;;;;;7.50;100.00;99206.34;6124787;23;19923;-85
2023/06/12 17:49:02;;;;;;;;;;;;;;;7.41;100.00;99206.69;6098405;23;19991;-84
2023/06/12 17:51:27;;;;;;;;;;;;;;;7.38;100.00;99202.41;6124447;23;19913;-83
2023/06/12 17:53:53;;;;;;;;;;;;;;;7.35;100.00;99207.78;6098732;23;20388;-83
2023/06/12 17:56:19;;;;;;;;;;;;;;;7.38;100.00;99197.13;6123557;23;20324;-84
2023/06/12 17:58:44;;;;;;;;;;;;;;;7.39;100.00;99201.50;6122025;23;19916;-82
2023/06/12 18:01:10;;;;;;;;;;;;;;;7.40;100.00;99200.59;6122419;23;20381;-84
2023/06/12 18:03:35;;;;;;;;;;;;;;;7.43;100.00;99202.22;6123257;23;19955;-83
2023/06/12 18:06:00;;;;;;;;;;;;;;;7.47;100.00;99203.81;6096959;23;19917;-83
2023/06/12 18:08:26;;;;;;;;;;;;;;;7.38;100.00;99209.44;6091482;23;19913;-84
2023/06/12 18:10:52;;;;;;;;;;;;;;;7.52;100.00;99203.66;6124341;23;19948;-82
2023/06/12 18:13:17;;;;;;;;;;;;;;;7.40;100.00;99205.84;6096616;23;19924;-83
2023/06/12 18:15:42;;;;;;;;;;;;;;;7.34;100.00;99203.44;6098200;23;20344;-83
2023/06/12 18:18:08;;;;;;;;;;;;;;;7.42;100.00;99206.66;6098606;23;19917;-82
2023/06/12 18:20:33;;;;;;;;;;;;;;;7.39;100.00;99205.91;6097464;23;20227;-86
2023/06/12 18:22:58;;;;;;;;;;;;;;;7.36;100.00;99206.88;6097408;23;19973;-84
2023/06/12 18:25:24;;;;;;;;;;;;;;;7.39;100.00;99212.03;6098165;23;20379;-83
2023/06/12 18:27:50;;;;;;;;;;;;;;;7.48;100.00;99212.59;6097893;23;19919;-83
2023/06/12 18:30:16;;;;;;;;;;;;;;;7.45;100.00;99206.53;6125213;23;20011;-85
2023/06/12 18:32:41;;;;;;;;;;;;;;;7.40;100.00;99205.84;6099231;23;19939;-83
2023/06/12 18:35:08;;;;;;;;;;;;;;;7.41;100.00;99214.59;6097034;23;19917;-84
2023/06/12 18:37:33;;;;;;;;;;;;;;;7.36;100.00;99211.31;6098633;23;19917;-83
2023/06/12 18:39:58;;;;;;;;;;;;;;;7.33;100.00;99209.63;6124008;23;19923;-84
2023/06/12 18:42:24;;;;;;;;;;;;;;;7.42;100.00;99209.28;6097820;23;19923;-84
2023/06/12 18:44:49;;;;;;;;;;;;;;;7.38;100.00;99218.22;6099337;23;19920;-84
2023/06/12 18:47:15;;;;;;;;;;;;;;;7.37;100.00;99213.88;6099543;23;19917;-83
2023/06/12 18:49:40;;;;;;;;;;;;;;;7.38;100.00;99207.66;6125544;23;20245;-83
2023/06/12 18:52:07;;;;;;;;;;;;;;;7.33;100.00;99214.91;6099404;23;19944;-82
2023/06/12 18:54:32;;;;;;;;;;;;;;;7.34;100.00;99207.84;6099337;23;19913;-83
2023/06/12 18:56:57;;;;;;;;;;;;;;;7.28;100.00;99212.44;6125183;23;19916;-82
2023/06/12 18:59:23;;;;;;;;;;;;;;;7.32;100.00;99210.53;6123461;23;19948;-88
2023/06/12 19:01:48;;;;;;;;;;;;;;;7.31;100.00;99211.47;6099384;23;20393;-84
2023/06/12 19:04:13;;;;;;;;;;;;;;;7.31;100.00;99211.47;6125153;23;20317;-83
2023/06/12 19:06:39;;;;;;;;;;;;;;;7.28;100.00;99216.88;6118211;23;19917;-84
2023/06/12 19:09:05;;;;;;;;;;;;;;;7.26;100.00;99210.81;6099126;23;20337;-84
2023/06/12 19:11:30;;;;;;;;;;;;;;;7.25;100.00;99212.56;6124419;23;19913;-83
2023/06/12 19:13:56;;;;;;;;;;;;;;;7.26;100.00;99211.66;6123180;23;20277;-83
2023/06/12 19:16:21;;;;;;;;;;;;;;;7.25;100.00;99219.63;6098895;23;19999;-82
2023/06/12 19:18:46;;;;;;;;;;;;;;;7.24;100.00;99216.13;6098636;23;19913;-88
2023/06/12 19:21:17;;;;;;;;;;;;;;;7.27;100.00;99210.75;6101032;23;20321;-83
2023/06/12 19:23:43;;;;;;;;;;;;;;;7.27;100.00;99217.78;6100921;23;20322;-84
2023/06/12 19:26:11;;;;;;;;;;;;;;;7.25;100.00;99216.97;6126815;23;19948;-83
2023/06/12 19:28:36;;;;;;;;;;;;;;;7.21;100.00;99213.59;6125216;23;19913;-84
2023/06/12 19:31:02;;;;;;;;;;;;;;;7.21;100.00;99216.25;6126869;23;19916;-86
2023/06/12 19:33:27;;;;;;;;;;;;;;;7.21;100.00;99220.63;6127152;23;19912;-82
2023/06/12 19:35:52;;;;;;;;;;;;;;;7.22;100.00;99220.56;6101130;23;19917;-82
2023/06/12 19:38:17;;;;;;;;;;;;;;;7.20;100.00;99218.94;6127036;23;19920;-82
2023/06/12 19:40:43;;;;;;;;;;;;;;;7.19;100.00;99223.31;6126726;23;19913;-83
2023/06/12 19:43:08;;;;;;;;;;;;;;;7.20;100.00;99222.41;6099347;23;19913;-82
2023/06/12 19:45:33;;;;;;;;;;;;;;;7.20;100.00;99224.22;6100726;23;19943;-82
2023/06/12 19:48:00;;;;;;;;;;;;;;;7.20;100.00;99222.41;6100485;23;19913;-82
2023/06/12 19:50:25;;;;;;;;;;;;;;;7.16;100.00;99230.50;6094662;23;19921;-83
2023/06/12 19:52:51;;;;;;;;;;;;;;;7.17;100.00;99224.31;6119726;23;20210;-83
2023/06/12 19:55:16;;;;;;;;;;;;;;;7.18;100.00;99232.16;6092915;23;19917;-83
2023/06/12 19:57:42;;;;;;;;;;;;;;;7.18;100.00;99234.81;6124174;23;20281;-83
2023/06/12 20:00:08;;;;;;;;;;;;;;;7.19;100.00;99227.75;6099485;23;19987;-83
2023/06/12 20:02:33;;;;;;;;;;;;;;;7.19;100.00;99230.38;6126337;23;19995;-83
2023/06/12 20:04:58;;;;;;;;;;;;;;;7.15;100.00;99236.66;6126573;23;19920;-82
2023/06/12 20:07:23;;;;;;;;;;;;;;;7.18;100.00;99236.56;6126475;23;20449;-83
2023/06/12 20:09:49;;;;;;;;;;;;;;;7.17;100.00;99240.13;6126374;23;19917;-84
2023/06/12 20:12:14;;;;;;;;;;;;;;;7.17;100.00;99237.50;6126540;23;19928;-84
2023/06/12 20:14:39;;;;;;;;;;;;;;;7.20;100.00;99240.00;6099211;23;19991;-83
2023/06/12 20:17:05;;;;;;;;;;;;;;;7.15;100.00;99236.66;6100469;23;20008;-82
2023/06/12 20:19:30;;;;;;;;;;;;;;;7.15;100.00;99244.56;6100450;23;19920;-83
2023/06/12 20:21:57;;;;;;;;;;;;;;;7.15;100.00;99248.09;6100005;23;19980;-84
2023/06/12 20:24:22;;;;;;;;;;;;;;;7.17;100.00;99245.41;6100457;23;19912;-82
2023/06/12 20:26:48;;;;;;;;;;;;;;;7.17;100.00;99248.03;6126172;23;20019;-84
2023/06/12 20:29:13;;;;;;;;;;;;;;;7.13;100.00;99244.63;6098675;23;19920;-83
2023/06/12 20:31:38;;;;;;;;;;;;;;;7.14;100.00;99251.63;6100135;23;19920;-82
2023/06/12 20:34:03;;;;;;;;;;;;;;;7.16;100.00;99255.06;6100490;23;20325;-82
2023/06/12 20:36:29;;;;;;;;;;;;;;;7.16;100.00;99259.47;6100099;23;19913;-82
2023/06/12 20:38:54;;;;;;;;;;;;;;;7.12;100.00;99257.91;6119406;23;20393;-84
2023/06/12 20:41:20;;;;;;;;;;;;;;;7.09;100.00;99251.78;6126102;23;20004;-82
2023/06/12 20:43:45;;;;;;;;;;;;;;;7.11;100.00;99246.47;6098947;23;20337;-83